Flugplatz Traben-Trarbach/Mont Royal

Für EDRM sind keine METAR/TAF Berichte vorhanden.
Es werden die Flugwettermeldungen vom Flugplatz Frankfurt-Hahn in 11 km Entfernung angezeigt.

Bericht für EDFH

vom 31.05. um 10:50 UTC

Wind 7 kt aus 80°

Sichtweite 10 km oder mehr

gering bewölkt in 4500 ft

Temperatur 16.0°C

Taupunkt 4.0°C

Luftfeuchtigkeit 45%

Luftdruck 1021 hPa

EDFH 311050Z 08007KT 020V160 9999 FEW045 16/04 Q1021

Prognose für EDFH

vom 31.05. um 05:00 UTC

Zwischen 06:00 UTC und 06:00 UTC

Wind 8 kt aus 70°

Sichtweite 10 km oder mehr

keine signifikanten Wettererscheinungen

keine Wolken

TAF EDFH 310500Z 3106/0106 07008KT CAVOK
Impressum